createdAt,value
2023-10-28T00:00:18.414Z,100274.75
2023-10-28T00:02:46.625Z,100272.28
2023-10-28T00:05:15.616Z,100269.72
2023-10-28T00:07:43.766Z,100271.34
2023-10-28T00:10:12.185Z,100270.69
2023-10-28T00:12:40.271Z,100271.53
2023-10-28T00:15:09.921Z,100281.75
2023-10-28T00:17:39.352Z,100272.28
2023-10-28T00:20:10.174Z,100283.28
2023-10-28T00:22:38.319Z,100279.06
2023-10-28T00:25:07.381Z,100276.59
2023-10-28T00:27:35.447Z,100283.28
2023-10-28T00:30:03.418Z,100283.34
2023-10-28T00:32:31.982Z,100272.47
2023-10-28T00:35:03.759Z,100286.91
2023-10-28T00:37:31.778Z,100272.72
2023-10-28T00:40:00.216Z,100282.16
2023-10-28T00:42:28.738Z,100271.97
2023-10-28T00:44:56.895Z,100281.31
2023-10-28T00:47:25.588Z,100277.97
2023-10-28T00:49:54.275Z,100279.69
2023-10-28T00:52:23.153Z,100278.00
2023-10-28T00:54:52.577Z,100283.84
2023-10-28T00:57:21.796Z,100273.00
2023-10-28T00:59:50.623Z,100282.28
2023-10-28T01:02:18.980Z,100267.88
2023-10-28T01:04:47.303Z,100284.88
2023-10-28T01:07:15.532Z,100280.75
2023-10-28T01:09:48.835Z,100283.22
2023-10-28T01:12:17.314Z,100272.38
2023-10-28T01:14:45.317Z,100285.84
2023-10-28T01:17:15.755Z,100291.72
2023-10-28T01:19:43.859Z,100288.31
2023-10-28T01:22:13.346Z,100295.34
2023-10-28T01:24:41.599Z,100286.81
2023-10-28T01:27:10.921Z,100293.63
2023-10-28T01:29:39.097Z,100291.19
2023-10-28T01:32:07.994Z,100284.47
2023-10-28T01:34:50.549Z,100287.19
2023-10-28T01:37:20.626Z,100294.88
2023-10-28T01:39:49.792Z,100293.19
2023-10-28T01:42:17.880Z,100300.13
2023-10-28T01:44:46.876Z,100296.81
2023-10-28T01:47:15.460Z,100285.91
2023-10-28T01:49:43.987Z,100298.56
2023-10-28T01:52:14.214Z,100292.69
2023-10-28T01:54:43.835Z,100280.22
2023-10-28T01:57:11.866Z,100295.38
2023-10-28T01:59:41.141Z,100295.41
2023-10-28T02:02:12.253Z,100298.72
2023-10-28T02:04:40.346Z,100299.59
2023-10-28T02:07:08.345Z,100306.34
2023-10-28T02:09:36.347Z,100297.97
2023-10-28T02:12:07.756Z,100303.78
2023-10-28T02:14:36.999Z,100292.88
2023-10-28T02:17:05.746Z,100293.56
2023-10-28T02:19:34.559Z,100287.84
2023-10-28T02:22:12.701Z,100294.63
2023-10-28T02:24:42.837Z,100298.75
2023-10-28T02:27:12.725Z,100300.50
2023-10-28T02:29:40.738Z,100303.91
2023-10-28T02:32:10.675Z,100299.50
2023-10-28T02:34:39.010Z,100302.13
2023-10-28T02:37:07.109Z,100296.06
2023-10-28T02:39:35.156Z,100298.63
2023-10-28T02:42:03.383Z,100296.91
2023-10-28T02:44:34.338Z,100305.25
2023-10-28T02:47:02.488Z,100298.47
2023-10-28T02:49:30.579Z,100305.25
2023-10-28T02:51:59.114Z,100309.53
2023-10-28T02:54:27.046Z,100307.03
2023-10-28T02:56:55.030Z,100304.41
2023-10-28T02:59:23.010Z,100318.78
2023-10-28T03:01:51.441Z,100312.91
2023-10-28T03:04:19.565Z,100318.75
2023-10-28T03:06:47.632Z,100315.41
2023-10-28T03:09:15.604Z,100305.19
2023-10-28T03:11:43.758Z,100314.47
2023-10-28T03:14:11.801Z,100307.63
2023-10-28T03:16:40.436Z,100315.25
2023-10-28T03:19:12.478Z,100313.50
2023-10-28T03:21:40.995Z,100306.91
2023-10-28T03:24:09.988Z,100299.44
2023-10-28T03:26:38.319Z,100306.00
2023-10-28T03:29:06.648Z,100310.31
2023-10-28T03:31:34.868Z,100292.66
2023-10-28T03:34:02.997Z,100299.56
2023-10-28T03:36:32.343Z,100312.97
2023-10-28T03:39:00.552Z,100305.53
2023-10-28T03:41:28.582Z,100316.38
2023-10-28T03:43:56.727Z,100315.66
2023-10-28T03:46:26.388Z,100308.72
2023-10-28T03:48:54.702Z,100306.31
2023-10-28T03:51:22.564Z,100307.25
2023-10-28T03:53:52.048Z,100308.06
2023-10-28T03:56:20.053Z,100302.94
2023-10-28T03:58:47.998Z,100299.59
2023-10-28T04:01:17.244Z,100314.03
2023-10-28T04:03:47.759Z,100312.28
2023-10-28T04:06:15.875Z,100303.03
2023-10-28T04:08:44.078Z,100309.84
2023-10-28T04:11:13.456Z,100309.81
2023-10-28T04:13:41.398Z,100297.97
2023-10-28T04:16:09.609Z,100305.66
2023-10-28T04:18:39.306Z,100303.13
2023-10-28T04:21:08.609Z,100308.25
2023-10-28T04:23:37.007Z,100298.16
2023-10-28T04:26:06.580Z,100305.72
2023-10-28T04:28:36.101Z,100308.34
2023-10-28T04:31:04.063Z,100316.06
2023-10-28T04:33:32.503Z,100307.69
2023-10-28T04:36:00.442Z,100299.84
2023-10-28T04:38:28.367Z,100317.72
2023-10-28T04:40:57.900Z,100310.97
2023-10-28T04:43:26.013Z,100311.06
2023-10-28T04:45:56.158Z,100314.47
2023-10-28T04:48:27.196Z,100308.63
2023-10-28T04:50:55.081Z,100314.66
2023-10-28T04:53:24.102Z,100315.66
2023-10-28T04:55:52.677Z,100305.50
2023-10-28T04:58:20.792Z,100314.84
2023-10-28T05:00:48.750Z,100305.00
2023-10-28T05:03:20.630Z,100315.03
2023-10-28T05:05:49.340Z,100321.16
2023-10-28T05:08:17.430Z,100327.09
2023-10-28T05:10:48.445Z,100309.50
2023-10-28T05:13:16.655Z,100331.47
2023-10-28T05:15:44.596Z,100330.69
2023-10-28T05:18:13.129Z,100329.91
2023-10-28T05:20:42.933Z,100335.94
2023-10-28T05:23:11.013Z,100342.72
2023-10-28T05:25:38.991Z,100334.41
2023-10-28T05:28:07.286Z,100336.94
2023-10-28T05:30:35.162Z,100345.53
2023-10-28T05:33:03.168Z,100338.84
2023-10-28T05:35:31.985Z,100327.88
2023-10-28T05:38:01.388Z,100350.72
2023-10-28T05:40:29.573Z,100349.22
2023-10-28T05:42:57.468Z,100361.06
2023-10-28T05:45:25.629Z,100358.53
2023-10-28T05:47:54.368Z,100349.19
2023-10-28T05:50:22.307Z,100347.59
2023-10-28T05:52:50.509Z,100342.56
2023-10-28T05:55:19.950Z,100361.94
2023-10-28T05:57:48.088Z,100359.50
2023-10-28T06:00:16.774Z,100364.63
2023-10-28T06:02:45.102Z,100361.22
2023-10-28T06:05:15.597Z,100366.34
2023-10-28T06:07:48.796Z,100371.34
2023-10-28T06:10:17.029Z,100375.50
2023-10-28T06:12:46.420Z,100356.13
2023-10-28T06:15:17.044Z,100383.91
2023-10-28T06:17:47.154Z,100367.91
2023-10-28T06:20:15.119Z,100382.19
2023-10-28T06:22:43.927Z,100387.22
2023-10-28T06:25:11.925Z,100396.50
2023-10-28T06:27:40.137Z,100399.00
2023-10-28T06:30:13.009Z,100395.56
2023-10-28T06:32:41.536Z,100391.28
2023-10-28T06:35:10.144Z,100383.84
2023-10-28T06:37:40.994Z,100384.59
2023-10-28T06:40:12.060Z,100408.16
2023-10-28T06:42:40.173Z,100395.44
2023-10-28T06:45:15.095Z,100396.25
2023-10-28T06:47:43.042Z,100404.66
2023-10-28T06:50:11.617Z,100409.75
2023-10-28T06:52:40.554Z,100415.66
2023-10-28T06:55:13.704Z,100425.72
2023-10-28T06:57:42.665Z,100424.97
2023-10-28T07:00:14.949Z,100421.47
2023-10-28T07:02:43.202Z,100428.19
2023-10-28T07:05:11.602Z,100416.41
2023-10-28T07:07:41.323Z,100423.94
2023-10-28T07:10:10.350Z,100415.41
2023-10-28T07:12:38.309Z,100433.09
2023-10-28T07:15:07.061Z,100430.56
2023-10-28T07:17:36.603Z,100421.28
2023-10-28T07:20:05.303Z,100434.72
2023-10-28T07:22:34.284Z,100432.31
2023-10-28T07:25:02.333Z,100433.94
2023-10-28T07:27:32.722Z,100443.25
2023-10-28T07:30:00.783Z,100439.81
2023-10-28T07:32:29.085Z,100441.47
2023-10-28T07:34:58.651Z,100437.13
2023-10-28T07:37:26.826Z,100441.31
2023-10-28T07:39:54.777Z,100440.47
2023-10-28T07:42:24.329Z,100448.97
2023-10-28T07:44:53.129Z,100437.06
2023-10-28T07:47:21.248Z,100441.97
2023-10-28T07:49:49.411Z,100453.88
2023-10-28T07:52:18.792Z,100451.31
2023-10-28T07:54:46.785Z,100452.16
2023-10-28T07:57:14.858Z,100458.94
2023-10-28T07:59:43.431Z,100464.94
2023-10-28T08:02:12.844Z,100454.66
2023-10-28T08:04:40.972Z,100458.91
2023-10-28T08:07:09.238Z,100465.63
2023-10-28T08:09:38.589Z,100477.34
2023-10-28T08:12:06.170Z,100461.16
2023-10-28T08:14:35.683Z,100471.44
2023-10-28T08:17:04.381Z,100464.75
2023-10-28T08:19:32.315Z,100469.81
2023-10-28T08:22:02.850Z,100485.78
2023-10-28T08:24:31.003Z,100481.53
2023-10-28T08:27:00.353Z,100492.44
2023-10-28T08:29:28.398Z,100492.47
2023-10-28T08:31:57.785Z,100491.59
2023-10-28T08:34:26.297Z,100502.63
2023-10-28T08:37:07.935Z,100493.19
2023-10-28T08:39:37.509Z,100499.13
2023-10-28T08:42:12.325Z,100500.72
2023-10-28T08:45:10.156Z,100497.28
2023-10-28T08:47:40.618Z,100500.56
2023-10-28T08:50:08.849Z,100498.16
2023-10-28T08:52:39.113Z,100501.53
2023-10-28T08:55:12.095Z,100506.75
2023-10-28T08:57:45.244Z,100513.63
2023-10-28T09:00:18.726Z,100509.22
2023-10-28T09:02:48.266Z,100520.25
2023-10-28T09:05:17.386Z,100519.50
2023-10-28T09:07:46.778Z,100514.47
2023-10-28T09:10:15.500Z,100522.88
2023-10-28T09:12:45.694Z,100516.09
2023-10-28T09:15:14.223Z,100527.91
2023-10-28T09:17:42.825Z,100531.38
2023-10-28T09:20:13.322Z,100528.91
2023-10-28T09:22:44.429Z,100533.19
2023-10-28T09:25:15.612Z,100530.59
2023-10-28T09:27:46.858Z,100521.44
2023-10-28T09:30:23.247Z,100526.34
2023-10-28T09:32:54.783Z,100539.91
2023-10-28T09:35:24.355Z,100537.44
2023-10-28T09:37:52.627Z,100517.78
2023-10-28T09:40:20.652Z,100532.13
2023-10-28T09:42:52.048Z,100544.66
2023-10-28T09:45:20.093Z,100547.16
2023-10-28T09:47:56.647Z,100536.19
2023-10-28T09:50:26.736Z,100547.00
2023-10-28T09:52:57.482Z,100529.25
2023-10-28T09:55:27.504Z,100548.78
2023-10-28T09:58:06.380Z,100515.72
2023-10-28T10:00:37.012Z,100543.53
2023-10-28T10:03:21.947Z,100539.50
2023-10-28T10:05:50.323Z,100538.72
2023-10-28T10:08:20.205Z,100538.81
2023-10-28T10:10:50.389Z,100558.09
2023-10-28T10:13:20.078Z,100553.03
2023-10-28T10:15:55.961Z,100536.09
2023-10-28T10:18:33.490Z,100559.72
2023-10-28T10:21:06.913Z,100555.38
2023-10-28T10:23:45.183Z,100549.19
2023-10-28T10:26:23.912Z,100561.16
2023-10-28T10:28:55.802Z,100550.09
2023-10-28T10:31:32.539Z,100552.66
2023-10-28T10:34:05.511Z,100555.13
2023-10-28T10:36:37.421Z,100552.47
2023-10-28T10:39:17.178Z,100551.56
2023-10-28T10:41:50.111Z,100547.97
2023-10-28T10:44:28.160Z,100547.97
2023-10-28T10:46:59.496Z,100546.44
2023-10-28T10:49:28.396Z,100548.88
2023-10-28T10:51:56.297Z,100549.91
2023-10-28T10:54:30.867Z,100543.25
2023-10-28T10:56:59.896Z,100551.75
2023-10-28T10:59:30.910Z,100546.50
2023-10-28T11:01:59.198Z,100548.38
2023-10-28T11:04:27.331Z,100563.50
2023-10-28T11:06:56.102Z,100550.03
2023-10-28T11:09:24.569Z,100541.66
2023-10-28T11:11:52.572Z,100550.28
2023-10-28T11:14:20.687Z,100557.28
2023-10-28T11:16:52.017Z,100564.00
2023-10-28T11:19:20.851Z,100570.72
2023-10-28T11:21:49.580Z,100556.44
2023-10-28T11:24:18.533Z,100565.66
2023-10-28T11:26:47.920Z,100566.44
2023-10-28T11:29:18.969Z,100567.47
2023-10-28T11:31:47.694Z,100569.13
2023-10-28T11:34:17.069Z,100566.69
2023-10-28T11:36:44.965Z,100568.34
2023-10-28T11:39:14.774Z,100562.47
2023-10-28T11:41:48.560Z,100574.47
2023-10-28T11:44:21.228Z,100568.56
2023-10-28T11:46:49.272Z,100564.13
2023-10-28T11:49:18.531Z,100558.22
2023-10-28T11:51:46.606Z,100561.00
2023-10-28T11:54:15.220Z,100562.53
2023-10-28T11:56:43.261Z,100562.41
2023-10-28T11:59:12.487Z,100571.09
2023-10-28T12:01:40.535Z,100560.06
2023-10-28T12:04:09.225Z,100556.75
2023-10-28T12:06:38.890Z,100551.53
2023-10-28T12:09:12.326Z,100554.13
2023-10-28T12:11:40.925Z,100561.72
2023-10-28T12:14:10.116Z,100566.91
2023-10-28T12:16:39.014Z,100544.72
2023-10-28T12:19:07.887Z,100557.66
2023-10-28T12:21:37.790Z,100539.03
2023-10-28T12:24:08.713Z,100553.34
2023-10-28T12:26:36.809Z,100558.38
2023-10-28T12:29:06.097Z,100554.97
2023-10-28T12:31:34.738Z,100560.00
2023-10-28T12:34:04.451Z,100557.44
2023-10-28T12:36:33.075Z,100555.66
2023-10-28T12:39:01.090Z,100569.53
2023-10-28T12:41:30.765Z,100568.53
2023-10-28T12:43:59.319Z,100585.69
2023-10-28T12:46:27.605Z,100581.41
2023-10-28T12:48:55.720Z,100572.97
2023-10-28T12:51:23.607Z,100583.91
2023-10-28T12:53:51.569Z,100582.97
2023-10-28T12:56:19.627Z,100586.28
2023-10-28T12:58:48.933Z,100583.59
2023-10-28T13:01:17.030Z,100581.84
2023-10-28T13:03:45.169Z,100582.81
2023-10-28T13:06:13.188Z,100586.91
2023-10-28T13:08:41.147Z,100574.31
2023-10-28T13:11:10.396Z,100584.38
2023-10-28T13:13:38.586Z,100585.25
2023-10-28T13:16:10.098Z,100579.44
2023-10-28T13:18:38.150Z,100584.56
2023-10-28T13:21:06.645Z,100581.13
2023-10-28T13:23:34.777Z,100583.47
2023-10-28T13:26:02.926Z,100585.38
2023-10-28T13:28:30.937Z,100583.53
2023-10-28T13:31:01.295Z,100584.41
2023-10-28T13:33:30.411Z,100587.69
2023-10-28T13:35:58.390Z,100581.81
2023-10-28T13:38:27.096Z,100585.25
2023-10-28T13:40:55.033Z,100565.06
2023-10-28T13:43:23.012Z,100587.06
2023-10-28T13:45:50.984Z,100572.69
2023-10-28T13:48:19.001Z,100585.44
2023-10-28T13:50:48.577Z,100586.19
2023-10-28T13:53:16.583Z,100583.00
2023-10-28T13:55:47.573Z,100590.44
2023-10-28T13:58:15.646Z,100597.31
2023-10-28T14:00:43.737Z,100591.31
2023-10-28T14:03:13.385Z,100596.44
2023-10-28T14:05:41.394Z,100590.47
2023-10-28T14:08:10.935Z,100603.13
2023-10-28T14:10:38.848Z,100591.34
2023-10-28T14:13:08.026Z,100601.44
2023-10-28T14:15:38.900Z,100610.72
2023-10-28T14:18:09.272Z,100604.75
2023-10-28T14:20:37.585Z,100607.31
2023-10-28T14:23:05.619Z,100604.16
2023-10-28T14:25:35.301Z,100618.47
2023-10-28T14:28:06.808Z,100607.47
2023-10-28T14:30:35.114Z,100617.78
2023-10-28T14:33:03.129Z,100627.91
2023-10-28T14:35:31.126Z,100615.16
2023-10-28T14:38:00.046Z,100621.06
2023-10-28T14:40:30.866Z,100628.78
2023-10-28T14:43:00.286Z,100625.31
2023-10-28T14:45:28.366Z,100602.59
2023-10-28T14:47:56.319Z,100633.94
2023-10-28T14:50:25.495Z,100638.19
2023-10-28T14:52:53.492Z,100630.50
2023-10-28T14:55:21.429Z,100616.16
2023-10-28T14:58:02.579Z,100628.09
2023-10-28T15:00:39.316Z,100634.84
2023-10-28T15:03:08.352Z,100633.25
2023-10-28T15:05:36.594Z,100637.41
2023-10-28T15:08:05.143Z,100640.00
2023-10-28T15:10:33.304Z,100630.72
2023-10-28T15:13:01.731Z,100633.31
2023-10-28T15:15:29.896Z,100649.34
2023-10-28T15:17:59.442Z,100635.88
2023-10-28T15:20:30.891Z,100643.41
2023-10-28T15:22:59.158Z,100643.44
2023-10-28T15:25:27.208Z,100641.00
2023-10-28T15:27:55.658Z,100640.91
2023-10-28T15:30:23.792Z,100640.97
2023-10-28T15:32:59.881Z,100650.34
2023-10-28T15:35:32.720Z,100645.31
2023-10-28T15:38:00.834Z,100642.97
2023-10-28T15:40:28.837Z,100647.91
2023-10-28T15:42:57.271Z,100651.31
2023-10-28T15:45:26.195Z,100646.22
2023-10-28T15:47:54.432Z,100659.09
2023-10-28T15:50:22.531Z,100656.47
2023-10-28T15:52:52.152Z,100641.19
2023-10-28T15:55:20.265Z,100649.63
2023-10-28T15:57:48.269Z,100647.97
2023-10-28T16:00:17.062Z,100650.56
2023-10-28T16:02:46.128Z,100647.25
2023-10-28T16:05:14.298Z,100636.25
2023-10-28T16:07:42.368Z,100646.53
2023-10-28T16:10:11.933Z,100652.25
2023-10-28T16:12:39.830Z,100647.97
2023-10-28T16:15:10.951Z,100647.19
2023-10-28T16:17:39.622Z,100649.06
2023-10-28T16:20:08.720Z,100651.72
2023-10-28T16:22:39.902Z,100663.53
2023-10-28T16:25:09.246Z,100653.53
2023-10-28T16:27:39.241Z,100656.06
2023-10-28T16:30:08.887Z,100661.06
2023-10-28T16:32:38.342Z,100640.16
2023-10-28T16:35:07.170Z,100659.59
2023-10-28T16:37:39.450Z,100655.34
2023-10-28T16:40:08.422Z,100672.16
2023-10-28T16:45:29.290Z,100679.00
2023-10-28T16:47:57.739Z,100679.97
2023-10-28T16:50:26.042Z,100667.22
2023-10-28T16:52:54.165Z,100670.50
2023-10-28T16:55:22.354Z,100680.63
2023-10-28T16:57:51.853Z,100674.72
2023-10-28T17:00:21.078Z,100662.84
2023-10-28T17:02:49.441Z,100689.22
2023-10-28T17:05:17.637Z,100676.44
2023-10-28T17:07:45.594Z,100688.19
2023-10-28T17:10:13.747Z,100698.69
2023-10-28T17:12:42.193Z,100688.31
2023-10-28T17:15:12.364Z,100683.22
2023-10-28T17:17:40.787Z,100687.66
2023-10-28T17:20:11.908Z,100675.72
2023-10-28T17:22:40.259Z,100683.25
2023-10-28T17:25:09.300Z,100689.22
2023-10-28T17:27:37.411Z,100698.63
2023-10-28T17:30:06.555Z,100686.75
2023-10-28T17:32:36.314Z,100688.38
2023-10-28T17:35:04.855Z,100695.25
2023-10-28T17:37:33.189Z,100685.16
2023-10-28T17:40:01.358Z,100684.31
2023-10-28T17:42:29.255Z,100685.91
2023-10-28T17:44:59.097Z,100688.44
2023-10-28T17:47:27.721Z,100698.66
2023-10-28T17:49:57.206Z,100699.56
2023-10-28T17:52:25.270Z,100698.78
2023-10-28T17:54:53.513Z,100706.31
2023-10-28T17:57:21.432Z,100705.44
2023-10-28T17:59:49.578Z,100704.66
2023-10-28T18:02:18.048Z,100709.69
2023-10-28T18:04:45.980Z,100698.78
2023-10-28T18:07:15.521Z,100711.44
2023-10-28T18:09:46.252Z,100711.44
2023-10-28T18:12:14.310Z,100710.63
2023-10-28T18:14:42.568Z,100708.97
2023-10-28T18:17:10.986Z,100714.13
2023-10-28T18:19:38.933Z,100681.03
2023-10-28T18:22:08.591Z,100704.72
2023-10-28T18:24:40.109Z,100720.78
2023-10-28T18:27:08.170Z,100707.28
2023-10-28T18:29:36.853Z,100704.84
2023-10-28T18:32:05.559Z,100726.91
2023-10-28T18:34:33.594Z,100720.09
2023-10-28T18:37:01.536Z,100708.22
2023-10-28T18:39:29.587Z,100724.28
2023-10-28T18:41:58.853Z,100719.28
2023-10-28T18:44:26.759Z,100716.72
2023-10-28T18:46:55.483Z,100715.88
2023-10-28T18:49:23.386Z,100703.97
2023-10-28T18:51:51.344Z,100729.38
2023-10-28T18:54:19.970Z,100727.63
2023-10-28T18:56:47.883Z,100722.47
2023-10-28T18:59:17.250Z,100720.13
2023-10-28T19:01:45.448Z,100721.78
2023-10-28T19:04:13.562Z,100727.78
2023-10-28T19:06:41.578Z,100716.09
2023-10-28T19:09:09.720Z,100735.47
2023-10-28T19:11:37.662Z,100727.78
2023-10-28T19:14:05.632Z,100727.78
2023-10-28T19:16:37.816Z,100734.50
2023-10-28T19:19:06.847Z,100715.03
2023-10-28T19:21:34.810Z,100729.44
2023-10-28T19:24:02.959Z,100740.50
2023-10-28T19:26:31.005Z,100741.34
2023-10-28T19:28:59.026Z,100743.09
2023-10-28T19:31:27.045Z,100747.38
2023-10-28T19:33:57.399Z,100759.28
2023-10-28T19:36:29.970Z,100754.16
2023-10-28T19:38:57.905Z,100766.03
2023-10-28T19:41:26.630Z,100770.25
2023-10-28T19:43:56.460Z,100768.56
2023-10-28T19:46:24.434Z,100774.56
2023-10-28T19:48:52.393Z,100755.91
2023-10-28T19:51:22.175Z,100765.94
2023-10-28T19:53:51.000Z,100772.84
2023-10-28T19:56:18.996Z,100766.06
2023-10-28T19:58:47.361Z,100772.91
2023-10-28T20:01:15.924Z,100771.16
2023-10-28T20:03:46.311Z,100756.88
2023-10-28T20:06:16.182Z,100773.75
2023-10-28T20:08:45.637Z,100760.09
2023-10-28T20:11:13.557Z,100775.50
2023-10-28T20:13:42.073Z,100778.03
2023-10-28T20:16:09.983Z,100778.84
2023-10-28T20:18:38.086Z,100776.22
2023-10-28T20:21:06.425Z,100780.50
2023-10-28T20:23:34.548Z,100766.16
2023-10-28T20:26:04.149Z,100778.81
2023-10-28T20:28:32.177Z,100781.38
2023-10-28T20:31:04.023Z,100783.06
2023-10-28T20:33:32.438Z,100782.19
2023-10-28T20:36:00.961Z,100783.94
2023-10-28T20:38:28.891Z,100794.03
2023-10-28T20:40:56.902Z,100802.53
2023-10-28T20:43:26.401Z,100790.72
2023-10-28T20:45:54.384Z,100789.84
2023-10-28T20:48:22.510Z,100789.81
2023-10-28T20:50:52.063Z,100792.38
2023-10-28T20:53:20.713Z,100796.72
2023-10-28T20:55:48.847Z,100800.97
2023-10-28T20:58:17.285Z,100798.41
2023-10-28T21:00:46.644Z,100789.16
2023-10-28T21:03:14.757Z,100796.75
2023-10-28T21:05:43.658Z,100799.25
2023-10-28T21:08:11.739Z,100802.63
2023-10-28T21:10:39.871Z,100801.03
2023-10-28T21:13:07.835Z,100804.41
2023-10-28T21:15:35.742Z,100810.28
2023-10-28T21:18:07.154Z,100801.88
2023-10-28T21:20:36.991Z,100801.88
2023-10-28T21:23:08.149Z,100806.22
2023-10-28T21:25:36.173Z,100804.47
2023-10-28T21:28:05.307Z,100797.66
2023-10-28T21:30:34.932Z,100801.03
2023-10-28T21:33:04.726Z,100798.50
2023-10-28T21:35:32.899Z,100814.63
2023-10-28T21:38:00.957Z,100814.59
2023-10-28T21:40:28.896Z,100795.91
2023-10-28T21:42:56.913Z,100804.41
2023-10-28T21:45:24.883Z,100803.53
2023-10-28T21:47:52.853Z,100815.34
2023-10-28T21:50:22.387Z,100821.41
2023-10-28T21:52:50.563Z,100806.16
2023-10-28T21:55:19.061Z,100808.72
2023-10-28T21:57:47.537Z,100818.78
2023-10-28T22:00:42.666Z,100828.22
2023-10-28T22:03:13.997Z,100813.03
2023-10-28T22:05:44.537Z,100817.19
2023-10-28T22:08:13.117Z,100815.50
2023-10-28T22:10:42.427Z,100807.84
2023-10-28T22:13:13.606Z,100812.94
2023-10-28T22:15:42.620Z,100815.50
2023-10-28T22:18:14.592Z,100813.84
2023-10-28T22:20:46.204Z,100807.13
2023-10-28T22:23:14.466Z,100814.63
2023-10-28T22:25:45.367Z,100816.28
2023-10-28T22:28:16.476Z,100801.94
2023-10-28T22:30:46.086Z,100816.41
2023-10-28T22:33:14.669Z,100811.25
2023-10-28T22:35:45.242Z,100810.41
2023-10-28T22:38:15.200Z,100810.44
2023-10-28T22:40:43.663Z,100810.41
2023-10-28T22:43:12.547Z,100802.78
2023-10-28T22:45:40.505Z,100800.25
2023-10-28T22:48:08.565Z,100806.19
2023-10-28T22:50:38.317Z,100798.56
2023-10-28T22:53:09.936Z,100812.16
2023-10-28T22:55:37.948Z,100822.34
2023-10-28T22:58:08.485Z,100810.44
2023-10-28T23:00:36.600Z,100797.78
2023-10-28T23:03:08.372Z,100802.03
2023-10-28T23:05:35.902Z,100806.22
2023-10-28T23:08:04.198Z,100807.88
2023-10-28T23:10:34.478Z,100806.19
2023-10-28T23:13:02.261Z,100811.22
2023-10-28T23:15:30.329Z,100803.63
2023-10-28T23:17:58.646Z,100812.16
2023-10-28T23:20:28.324Z,100812.13
2023-10-28T23:22:56.880Z,100806.19
2023-10-28T23:25:25.034Z,100802.88
2023-10-28T23:27:54.922Z,100811.28
2023-10-28T23:30:24.654Z,100796.06
2023-10-28T23:32:52.924Z,100802.84
2023-10-28T23:35:21.038Z,100803.72
2023-10-28T23:37:49.189Z,100806.25
2023-10-28T23:40:17.180Z,100804.47
2023-10-28T23:42:45.943Z,100796.97
2023-10-28T23:45:15.593Z,100807.13
2023-10-28T23:47:44.392Z,100797.81
2023-10-28T23:50:13.045Z,100807.09
2023-10-28T23:52:41.124Z,100810.56
2023-10-28T23:55:09.588Z,100810.56
2023-10-28T23:57:37.572Z,100808.09
